Time;durP1;ratioP1;P1;durP2;ratioP2;P2;SDS_P1;SDS_P2;PMS_P1;PMS_P2;Temp;Humidity;BMP_temperature;BMP_pressure;BME280_temperature;BME280_humidity;BME280_pressure;Samples;Min_cycle;Max_cycle;Signal;HPM_P1;HPM_P2
2021/10/25 04:02:45;;;;;;;69.27;16.03;;;4.50;99.70;;;;;;5052202;28;20230;-68
2021/10/25 04:27:24;;;;;;;72.23;18.13;;;4.50;99.70;;;;;;5047369;28;20478;-68
2021/10/25 04:29:59;;;;;;;77.50;19.90;;;4.60;99.70;;;;;;5049705;28;20483;-68
2021/10/25 04:32:26;;;;;;;70.70;18.80;;;4.70;99.70;;;;;;5048886;28;20525;-68
2021/10/25 04:34:54;;;;;;;71.43;18.20;;;4.50;99.70;;;;;;5044275;28;20467;-68
2021/10/25 04:37:20;;;;;;;71.67;18.60;;;4.50;99.70;;;;;;5048889;28;20443;-68
2021/10/25 04:39:47;;;;;;;74.13;20.03;;;4.50;99.70;;;;;;5051176;28;20428;-68
2021/10/25 04:42:16;;;;;;;73.07;18.47;;;4.40;99.70;;;;;;5049924;28;20463;-68
2021/10/25 04:44:43;;;;;;;73.90;20.40;;;4.40;99.70;;;;;;5043794;28;20498;-68
2021/10/25 04:47:13;;;;;;;81.37;21.03;;;4.40;99.70;;;;;;5045754;28;20487;-68
2021/10/25 04:49:40;;;;;;;80.10;22.17;;;4.40;99.70;;;;;;5049124;28;20447;-68
2021/10/25 04:52:12;;;;;;;93.63;24.50;;;4.50;99.70;;;;;;5049970;28;20447;-68
2021/10/25 04:54:40;;;;;;;93.40;25.10;;;4.50;99.70;;;;;;5044918;28;20530;-68
2021/10/25 04:57:06;;;;;;;93.00;24.53;;;4.50;99.70;;;;;;5049172;28;20827;-68
2021/10/25 04:59:33;;;;;;;106.30;29.40;;;4.50;99.70;;;;;;5050750;28;20932;-68
2021/10/25 05:02:02;;;;;;;101.20;27.80;;;4.40;99.70;;;;;;5047529;28;20986;-68
2021/10/25 05:04:29;;;;;;;94.50;26.90;;;4.40;99.70;;;;;;5048332;28;20497;-68
2021/10/25 05:06:57;;;;;;;89.97;25.93;;;4.40;99.70;;;;;;5047336;28;20476;-67
2021/10/25 05:09:25;;;;;;;89.30;26.23;;;4.40;99.70;;;;;;5049064;28;20542;-68
2021/10/25 05:11:52;;;;;;;82.50;23.10;;;4.40;99.70;;;;;;5046253;28;20481;-68
2021/10/25 05:14:19;;;;;;;74.53;21.13;;;4.40;99.70;;;;;;5046293;28;20468;-68
2021/10/25 05:16:45;;;;;;;75.33;21.00;;;4.40;99.70;;;;;;5048358;28;20483;-68
2021/10/25 05:19:12;;;;;;;76.03;22.20;;;4.50;99.70;;;;;;5047143;28;20459;-66
2021/10/25 05:21:39;;;;;;;83.37;23.37;;;4.50;99.70;;;;;;5047067;28;20447;-68
2021/10/25 05:24:06;;;;;;;73.73;20.47;;;4.50;99.70;;;;;;5049903;28;20451;-69
2021/10/25 05:26:34;;;;;;;73.33;19.67;;;5.10;99.70;;;;;;5050487;28;20463;-67
2021/10/25 05:29:01;;;;;;;71.30;18.57;;;5.30;99.70;;;;;;5050060;28;20436;-68
2021/10/25 05:31:28;;;;;;;71.93;18.60;;;5.00;99.70;;;;;;5050357;28;20480;-68
2021/10/25 05:33:57;;;;;;;70.10;17.33;;;4.90;99.70;;;;;;5050000;28;20542;-68
2021/10/25 05:36:24;;;;;;;71.47;19.30;;;4.90;99.70;;;;;;5050286;28;20476;-68
2021/10/25 05:38:51;;;;;;;74.97;19.40;;;5.20;99.70;;;;;;5050831;28;20452;-68
2021/10/25 05:41:18;;;;;;;74.37;18.83;;;5.00;99.70;;;;;;5051616;28;21000;-68
2021/10/25 05:43:46;;;;;;;75.37;19.83;;;4.70;99.70;;;;;;5051195;28;20459;-68
2021/10/25 05:46:13;;;;;;;74.63;20.00;;;4.50;99.70;;;;;;5050892;28;20479;-68
2021/10/25 05:48:41;;;;;;;72.30;18.80;;;4.40;99.70;;;;;;5051131;28;20795;-68
2021/10/25 05:51:08;;;;;;;73.47;19.80;;;4.40;99.70;;;;;;5051220;28;20475;-68
2021/10/25 05:53:35;;;;;;;75.17;19.50;;;4.60;99.70;;;;;;5051177;28;20443;-68
2021/10/25 05:56:01;;;;;;;73.80;19.93;;;4.50;99.70;;;;;;5050688;28;20466;-68
2021/10/25 05:58:30;;;;;;;72.63;19.47;;;4.40;99.70;;;;;;5050509;28;20962;-68
2021/10/25 06:01:00;;;;;;;71.13;19.23;;;4.30;99.70;;;;;;5051098;28;20893;-68
2021/10/25 06:03:32;;;;;;;77.03;19.97;;;4.30;99.70;;;;;;5050731;28;20456;-68
2021/10/25 06:05:59;;;;;;;73.00;18.87;;;4.40;99.70;;;;;;5049133;28;20460;-66
2021/10/25 06:08:28;;;;;;;74.83;19.43;;;4.50;99.70;;;;;;5048189;28;20446;-68
2021/10/25 06:10:55;;;;;;;76.97;19.13;;;4.50;99.70;;;;;;5050713;28;20490;-68
2021/10/25 06:13:26;;;;;;;72.83;18.73;;;4.80;99.70;;;;;;5050418;28;20450;-68
2021/10/25 06:16:04;;;;;;;74.53;18.50;;;4.90;99.70;;;;;;5050201;28;20577;-68
2021/10/25 06:18:32;;;;;;;69.37;17.33;;;4.70;99.70;;;;;;5050505;28;20443;-68
2021/10/25 06:20:58;;;;;;;78.30;20.03;;;4.90;99.70;;;;;;5050496;28;20443;-68
2021/10/25 06:23:25;;;;;;;76.20;21.27;;;5.20;99.70;;;;;;5050829;28;20436;-68
2021/10/25 06:25:52;;;;;;;77.27;20.37;;;4.90;99.70;;;;;;5050303;28;20470;-68
2021/10/25 06:28:20;;;;;;;78.07;20.10;;;4.70;99.70;;;;;;5050300;28;20487;-68
2021/10/25 06:30:54;;;;;;;84.77;20.53;;;4.50;99.70;;;;;;5049518;28;20471;-68
2021/10/25 06:33:21;;;;;;;79.53;20.00;;;4.50;99.70;;;;;;5049821;28;20818;-68
2021/10/25 06:36:00;;;;;;;74.37;18.87;;;4.80;99.70;;;;;;5049766;28;20460;-69
2021/10/25 06:38:31;;;;;;;71.70;17.40;;;4.60;99.70;;;;;;5050323;28;20493;-68
2021/10/25 06:40:58;;;;;;;71.93;17.97;;;4.60;99.70;;;;;;5050011;28;20786;-68
2021/10/25 06:43:24;;;;;;;70.97;16.33;;;4.50;99.70;;;;;;5050335;28;20447;-68
2021/10/25 06:45:52;;;;;;;75.00;17.97;;;4.40;99.70;;;;;;5049594;28;20529;-68
2021/10/25 06:48:18;;;;;;;68.90;16.50;;;4.60;99.70;;;;;;5049805;28;20867;-68
2021/10/25 06:50:45;;;;;;;69.90;16.60;;;4.60;99.70;;;;;;5049992;28;20479;-68
2021/10/25 06:53:14;;;;;;;68.77;15.77;;;4.50;99.70;;;;;;5049964;28;20447;-68
2021/10/25 06:55:41;;;;;;;69.67;15.13;;;4.60;99.70;;;;;;5049763;28;21005;-68
2021/10/25 06:58:08;;;;;;;67.00;15.50;;;4.70;99.70;;;;;;5049617;28;20454;-68
2021/10/25 07:00:35;;;;;;;67.27;14.50;;;4.90;99.70;;;;;;5049835;28;20486;-68
2021/10/25 07:03:01;;;;;;;67.60;15.30;;;5.00;99.70;;;;;;5049918;28;20486;-68
2021/10/25 07:05:30;;;;;;;79.90;20.50;;;4.70;99.70;;;;;;5049086;28;20475;-68
2021/10/25 07:07:57;;;;;;;78.83;21.10;;;4.70;99.70;;;;;;5049475;28;20455;-68
2021/10/25 07:10:27;;;;;;;77.77;18.97;;;4.60;99.70;;;;;;5050165;28;20451;-68
2021/10/25 07:12:54;;;;;;;70.07;16.07;;;4.50;99.70;;;;;;5048862;28;20471;-68
2021/10/25 07:15:21;;;;;;;70.53;16.00;;;4.60;99.70;;;;;;5048664;28;20471;-68
2021/10/25 07:17:52;;;;;;;71.53;16.27;;;4.50;99.70;;;;;;5045511;28;20819;-68
2021/10/25 07:20:33;;;;;;;72.73;17.90;;;4.40;99.70;;;;;;5050158;28;20903;-67
2021/10/25 08:02:13;;;;;;;63.60;13.80;;;6.30;99.70;;;;;;5053333;28;20419;-68
2021/10/25 08:07:33;;;;;;;60.80;13.00;;;6.50;99.70;;;;;;5048850;28;20438;-68
2021/10/25 08:10:03;;;;;;;65.00;14.97;;;6.80;99.70;;;;;;5053008;28;20675;-68
2021/10/25 08:12:32;;;;;;;68.00;15.60;;;7.00;99.70;;;;;;5053122;28;20479;-68
2021/10/25 08:15:04;;;;;;;63.67;16.57;;;7.10;99.70;;;;;;5052110;28;20452;-68
2021/10/25 08:17:40;;;;;;;63.20;15.77;;;7.10;99.70;;;;;;5052487;28;20447;-69
2021/10/25 08:20:08;;;;;;;62.80;14.67;;;7.20;99.70;;;;;;5052840;28;20447;-68
2021/10/25 08:22:37;;;;;;;62.57;16.33;;;7.70;99.70;;;;;;5052751;28;20447;-68
2021/10/25 08:25:04;;;;;;;61.57;14.10;;;7.70;99.70;;;;;;5052739;28;20457;-68
2021/10/25 08:27:31;;;;;;;63.50;16.60;;;7.80;99.70;;;;;;5052588;28;20470;-69
2021/10/25 08:29:58;;;;;;;65.37;18.17;;;7.80;99.70;;;;;;5052719;28;20446;-68
2021/10/25 08:32:40;;;;;;;64.10;18.70;;;7.60;99.70;;;;;;5052297;28;20593;-68
2021/10/25 08:35:27;;;;;;;64.60;20.90;;;7.50;99.70;;;;;;5052304;28;20459;-68
2021/10/25 08:40:40;;;;;;;65.77;19.93;;;7.90;99.70;;;;;;5052568;28;20431;-68
2021/10/25 08:43:09;;;;;;;66.50;20.47;;;7.60;99.70;;;;;;5051253;28;20439;-68
2021/10/25 08:45:36;;;;;;;64.17;19.90;;;7.60;99.70;;;;;;5051994;28;20471;-68
2021/10/25 08:48:05;;;;;;;66.23;20.97;;;7.90;99.70;;;;;;5052234;28;20451;-69
2021/10/25 08:50:35;;;;;;;66.00;22.83;;;8.00;99.70;;;;;;5052760;28;20454;-68
2021/10/25 08:53:03;;;;;;;70.83;26.20;;;8.10;99.70;;;;;;5052328;28;20795;-69
2021/10/25 08:55:31;;;;;;;70.23;24.13;;;7.90;99.70;;;;;;5052336;28;20467;-69
2021/10/25 08:57:57;;;;;;;65.13;20.67;;;8.00;99.70;;;;;;5051892;28;20816;-69
2021/10/25 09:00:36;;;;;;;62.73;21.40;;;8.20;99.70;;;;;;5052500;28;20505;-68
2021/10/25 09:03:05;;;;;;;65.93;22.70;;;8.50;99.70;;;;;;5052358;28;20450;-68
2021/10/25 09:05:33;;;;;;;67.53;23.13;;;8.40;99.70;;;;;;5051485;28;20471;-68
2021/10/25 09:08:03;;;;;;;67.67;21.33;;;8.10;99.70;;;;;;5051954;28;20543;-68
2021/10/25 09:10:32;;;;;;;68.00;22.90;;;7.90;99.70;;;;;;5052431;28;20448;-68
2021/10/25 09:13:02;;;;;;;64.70;21.93;;;7.80;99.70;;;;;;5051828;28;20998;-68
2021/10/25 09:15:31;;;;;;;66.20;20.40;;;7.90;99.70;;;;;;5032112;28;20469;-68
2021/10/25 09:18:00;;;;;;;69.23;23.00;;;8.00;99.70;;;;;;5031556;28;20448;-68
2021/10/25 09:20:28;;;;;;;69.77;22.47;;;7.90;99.70;;;;;;5032270;28;20472;-68
2021/10/25 09:23:07;;;;;;;69.13;21.40;;;7.90;99.70;;;;;;5040428;28;20860;-67
2021/10/25 09:25:34;;;;;;;71.20;20.00;;;7.80;99.70;;;;;;5051983;28;20560;-68
2021/10/25 09:28:01;;;;;;;68.20;19.90;;;7.90;99.70;;;;;;5051348;28;20450;-68
2021/10/25 09:30:28;;;;;;;68.07;20.10;;;8.00;99.70;;;;;;5052058;28;20447;-68
2021/10/25 09:32:54;;;;;;;70.30;20.17;;;8.20;99.70;;;;;;5052692;28;21002;-69
2021/10/25 09:35:25;;;;;;;67.00;19.00;;;8.20;99.70;;;;;;5053247;28;20468;-67
2021/10/25 09:37:58;;;;;;;66.00;20.13;;;8.30;99.70;;;;;;5051430;28;20455;-68
2021/10/25 09:40:34;;;;;;;71.87;21.33;;;8.50;99.70;;;;;;5052184;28;20930;-68
2021/10/25 09:43:14;;;;;;;65.97;22.20;;;8.40;99.70;;;;;;5051696;28;20466;-69
2021/10/25 09:45:58;;;;;;;65.97;20.40;;;8.40;99.70;;;;;;5051645;28;20475;-68
2021/10/25 09:51:14;;;;;;;66.10;20.43;;;8.70;99.70;;;;;;5040664;28;20498;-68
2021/10/25 09:53:46;;;;;;;64.30;21.00;;;8.80;99.70;;;;;;5051083;28;20452;-68
2021/10/25 09:56:15;;;;;;;70.07;24.33;;;8.80;99.70;;;;;;5051121;28;20529;-68
2021/10/25 09:58:55;;;;;;;73.90;23.10;;;8.90;99.70;;;;;;5051005;28;20822;-68
2021/10/25 10:01:26;;;;;;;70.50;22.20;;;9.00;99.70;;;;;;5051514;28;20538;-69
2021/10/25 10:03:53;;;;;;;69.90;21.47;;;9.00;99.70;;;;;;5050922;28;20763;-69
2021/10/25 10:06:21;;;;;;;69.87;23.03;;;9.00;99.70;;;;;;5050537;28;20491;-69
2021/10/25 10:08:49;;;;;;;65.60;19.80;;;9.10;99.70;;;;;;5050975;28;20945;-69
2021/10/25 10:11:18;;;;;;;73.63;22.90;;;9.20;99.70;;;;;;5050868;28;20439;-68
2021/10/25 10:13:45;;;;;;;66.07;20.10;;;9.20;99.70;;;;;;5046097;28;20799;-69
2021/10/25 10:16:13;;;;;;;66.70;20.30;;;9.20;99.70;;;;;;5030370;28;20479;-69
2021/10/25 10:18:43;;;;;;;64.27;18.27;;;9.40;99.70;;;;;;5031551;28;20456;-68
2021/10/25 10:21:13;;;;;;;62.57;18.90;;;9.60;99.70;;;;;;5030710;28;20449;-67
2021/10/25 10:23:43;;;;;;;67.80;20.87;;;9.70;99.70;;;;;;5030655;28;20447;-69
2021/10/25 10:26:15;;;;;;;64.40;18.70;;;9.50;99.70;;;;;;5030057;28;20551;-68
2021/10/25 10:28:44;;;;;;;63.17;20.97;;;9.60;99.70;;;;;;5030676;28;20447;-68
2021/10/25 10:31:15;;;;;;;64.47;19.87;;;9.70;99.70;;;;;;5030344;28;20535;-68
2021/10/25 10:33:44;;;;;;;66.27;22.80;;;9.80;99.70;;;;;;5030576;28;20449;-68
2021/10/25 10:36:13;;;;;;;63.60;20.80;;;9.90;99.70;;;;;;5029951;28;20460;-68
2021/10/25 10:38:49;;;;;;;60.00;20.27;;;10.00;99.70;;;;;;5030357;28;20448;-68
2021/10/25 10:41:19;;;;;;;61.23;19.67;;;10.10;99.70;;;;;;5030504;28;20471;-68
2021/10/25 10:44:00;;;;;;;61.67;20.13;;;10.10;99.70;;;;;;5030498;28;20455;-69
2021/10/25 10:46:27;;;;;;;62.97;20.70;;;10.30;99.70;;;;;;5029838;28;20479;-68
2021/10/25 10:48:56;;;;;;;64.70;19.50;;;10.30;99.70;;;;;;5030088;28;20874;-68
2021/10/25 10:51:27;;;;;;;64.63;23.03;;;10.20;99.70;;;;;;5030222;28;20448;-67
2021/10/25 10:54:03;;;;;;;64.80;21.67;;;10.20;99.70;;;;;;5030387;28;20447;-68
2021/10/25 10:56:37;;;;;;;63.57;21.10;;;10.20;99.70;;;;;;5029698;28;20819;-68
2021/10/25 10:59:19;;;;;;;61.87;21.90;;;10.30;99.70;;;;;;5047180;28;20946;-68
2021/10/25 11:01:54;;;;;;;62.93;20.70;;;10.20;99.70;;;;;;5051311;28;20483;-68
2021/10/25 11:04:29;;;;;;;59.10;19.33;;;10.30;99.70;;;;;;5049933;28;20510;-68
2021/10/25 11:06:59;;;;;;;60.27;19.03;;;10.30;99.70;;;;;;5049148;28;20861;-67
2021/10/25 11:09:30;;;;;;;69.70;23.00;;;10.40;99.70;;;;;;5050181;28;20443;-68
2021/10/25 11:12:02;;;;;;;62.30;20.90;;;10.60;99.70;;;;;;5049680;28;20483;-68
2021/10/25 11:14:30;;;;;;;65.30;23.67;;;10.70;99.70;;;;;;5049684;28;20935;-68
2021/10/25 11:17:14;;;;;;;63.73;22.17;;;10.80;99.70;;;;;;5049212;28;20468;-68
2021/10/25 11:19:46;;;;;;;62.77;20.03;;;10.90;99.70;;;;;;5049542;28;20439;-68
2021/10/25 11:22:23;;;;;;;59.63;20.00;;;10.90;99.70;;;;;;5049367;28;20452;-69
2021/10/25 11:24:51;;;;;;;61.80;20.03;;;11.00;99.70;;;;;;5049713;28;20443;-69
2021/10/25 11:27:30;;;;;;;59.13;20.70;;;11.00;99.70;;;;;;5050160;28;20479;-68
2021/10/25 11:30:07;;;;;;;61.47;21.23;;;11.00;99.70;;;;;;5049890;28;20534;-68
2021/10/25 11:32:35;;;;;;;56.83;20.30;;;11.00;99.70;;;;;;5049414;28;20479;-68
2021/10/25 11:35:02;;;;;;;57.60;19.90;;;11.00;99.70;;;;;;5050442;28;20443;-68
2021/10/25 11:37:29;;;;;;;61.13;22.77;;;11.10;99.70;;;;;;5048980;28;20443;-68
2021/10/25 11:40:04;;;;;;;59.73;20.30;;;11.10;99.70;;;;;;5049620;28;20510;-68
2021/10/25 11:42:34;;;;;;;59.50;21.53;;;11.10;99.70;;;;;;5049416;28;20446;-68
2021/10/25 11:45:04;;;;;;;61.00;19.30;;;11.10;99.70;;;;;;5049356;28;20447;-69
2021/10/25 11:47:33;;;;;;;56.10;19.23;;;11.30;99.70;;;;;;5049196;28;20483;-68
2021/10/25 11:50:01;;;;;;;59.03;20.93;;;11.60;99.70;;;;;;5049379;28;20498;-68
2021/10/25 11:52:34;;;;;;;58.53;22.20;;;11.60;99.70;;;;;;5049493;28;20483;-68
2021/10/25 11:55:01;;;;;;;59.87;23.17;;;11.60;99.70;;;;;;5049240;28;20463;-68
2021/10/25 11:57:28;;;;;;;57.30;22.53;;;11.60;99.70;;;;;;5047208;28;20455;-68
2021/10/25 11:59:58;;;;;;;57.47;24.90;;;11.50;99.70;;;;;;5049011;28;20443;-68
2021/10/25 12:02:26;;;;;;;58.30;23.03;;;11.40;99.70;;;;;;5048776;28;20444;-69
2021/10/25 12:04:53;;;;;;;59.20;23.83;;;11.40;99.70;;;;;;5048973;28;20452;-68
2021/10/25 12:07:20;;;;;;;59.17;22.03;;;11.30;99.70;;;;;;5047824;28;20472;-68
2021/10/25 12:09:47;;;;;;;59.17;21.83;;;11.40;99.70;;;;;;5047611;28;20456;-68
2021/10/25 12:12:15;;;;;;;59.20;26.70;;;11.50;99.70;;;;;;5051040;28;20483;-68
2021/10/25 12:14:44;;;;;;;57.20;22.40;;;11.60;99.70;;;;;;5052444;28;20448;-68
2021/10/25 12:17:18;;;;;;;55.90;23.03;;;11.70;99.70;;;;;;5051677;28;20474;-68
2021/10/25 12:19:46;;;;;;;59.50;24.50;;;11.70;99.70;;;;;;5050361;28;20454;-69
2021/10/25 12:22:15;;;;;;;62.60;26.20;;;11.60;99.70;;;;;;5050989;28;20440;-68
2021/10/25 12:24:44;;;;;;;61.40;26.90;;;11.60;99.70;;;;;;5050510;28;20568;-69
2021/10/25 12:27:17;;;;;;;61.57;26.13;;;11.60;99.70;;;;;;5050491;28;21030;-68
2021/10/25 12:29:44;;;;;;;61.93;24.37;;;11.50;99.70;;;;;;5050413;28;20444;-68
2021/10/25 12:32:14;;;;;;;61.07;25.87;;;11.50;99.70;;;;;;5043581;28;20479;-68
2021/10/25 12:34:49;;;;;;;62.17;26.67;;;11.40;99.70;;;;;;5032729;28;20830;-68
2021/10/25 12:37:19;;;;;;;64.60;26.30;;;11.40;99.70;;;;;;5032172;28;20451;-67
2021/10/25 12:39:46;;;;;;;61.70;27.60;;;11.40;99.70;;;;;;5036363;28;20848;-68
2021/10/25 12:42:13;;;;;;;60.70;25.90;;;11.40;99.70;;;;;;5052353;28;20475;-68
2021/10/25 12:44:44;;;;;;;61.73;24.03;;;11.40;99.70;;;;;;5039695;28;20506;-69
2021/10/25 12:47:13;;;;;;;55.83;22.80;;;11.50;99.70;;;;;;5051450;28;20478;-69
2021/10/25 12:49:45;;;;;;;59.27;24.80;;;11.60;99.70;;;;;;5052261;28;20454;-69
2021/10/25 12:52:13;;;;;;;60.43;24.50;;;11.70;99.70;;;;;;5052204;28;20507;-68
2021/10/25 12:54:40;;;;;;;58.97;24.10;;;11.70;99.70;;;;;;5052455;28;20488;-67
2021/10/25 12:57:16;;;;;;;59.23;23.63;;;11.70;99.70;;;;;;5051099;28;20490;-68
2021/10/25 12:59:43;;;;;;;56.70;24.37;;;11.70;99.70;;;;;;5051879;28;20451;-67
2021/10/25 13:02:22;;;;;;;60.10;24.07;;;11.70;99.70;;;;;;5051881;28;20443;-68
2021/10/25 13:04:49;;;;;;;57.17;26.13;;;11.90;99.70;;;;;;5051742;28;20458;-67
2021/10/25 13:07:19;;;;;;;58.03;24.40;;;12.10;99.70;;;;;;5051118;28;20444;-68
2021/10/25 13:09:50;;;;;;;57.93;26.13;;;12.00;99.70;;;;;;5051842;28;20456;-68
2021/10/25 13:12:17;;;;;;;59.53;27.23;;;12.10;99.70;;;;;;5031587;28;20480;-68
2021/10/25 13:14:44;;;;;;;63.60;23.90;;;12.20;99.70;;;;;;5031848;28;20947;-67
2021/10/25 13:17:13;;;;;;;54.80;12.80;;;12.20;99.70;;;;;;5031286;28;20460;-69
2021/10/25 13:19:40;;;;;;;59.73;25.70;;;12.30;99.70;;;;;;5041229;28;20950;-68
2021/10/25 13:22:07;;;;;;;58.10;25.30;;;12.30;99.70;;;;;;5050873;28;20451;-68
2021/10/25 13:24:34;;;;;;;55.47;19.13;;;12.50;99.70;;;;;;5050610;28;20439;-68
2021/10/25 13:27:01;;;;;;;58.73;20.13;;;12.90;99.70;;;;;;5048387;28;20487;-68
2021/10/25 13:29:27;;;;;;;52.20;19.17;;;13.00;99.70;;;;;;5041464;28;20443;-68
2021/10/25 13:31:54;;;;;;;53.30;19.53;;;13.10;99.70;;;;;;5051776;28;20436;-68
2021/10/25 13:34:22;;;;;;;55.47;21.87;;;13.10;99.70;;;;;;5051336;28;20510;-69
2021/10/25 13:36:50;;;;;;;55.70;18.40;;;13.00;99.70;;;;;;5050940;28;20663;-69
2021/10/25 13:39:18;;;;;;;61.03;21.70;;;13.00;99.70;;;;;;5051194;28;20451;-68
2021/10/25 13:41:45;;;;;;;52.60;18.00;;;13.10;99.70;;;;;;5051208;28;20451;-68
2021/10/25 13:44:12;;;;;;;49.97;15.37;;;13.10;99.70;;;;;;5050962;28;20447;-68
2021/10/25 13:46:39;;;;;;;50.03;16.20;;;13.10;99.70;;;;;;5050902;28;21008;-67
2021/10/25 13:49:07;;;;;;;51.33;17.17;;;13.00;99.70;;;;;;5050777;28;20444;-69
2021/10/25 13:51:35;;;;;;;53.70;15.20;;;12.90;99.70;;;;;;5049356;28;20467;-68
2021/10/25 13:54:02;;;;;;;50.40;15.50;;;12.90;99.70;;;;;;5051197;28;20490;-68
2021/10/25 13:56:29;;;;;;;51.30;18.60;;;12.90;99.70;;;;;;5050509;28;20460;-68
2021/10/25 13:58:56;;;;;;;50.47;16.23;;;12.90;99.70;;;;;;5051223;28;20847;-68
2021/10/25 14:01:23;;;;;;;49.57;12.93;;;12.90;99.70;;;;;;5047233;28;20463;-69
2021/10/25 14:03:51;;;;;;;48.00;13.43;;;13.10;99.70;;;;;;5041746;28;20461;-68
2021/10/25 14:06:20;;;;;;;48.63;13.23;;;13.10;99.70;;;;;;5042655;28;20488;-68
2021/10/25 14:08:50;;;;;;;49.57;11.67;;;13.10;99.70;;;;;;5041395;28;20823;-67
2021/10/25 14:11:17;;;;;;;51.53;13.23;;;13.40;99.70;;;;;;5051495;28;20447;-68
2021/10/25 14:13:54;;;;;;;48.80;14.93;;;13.40;99.70;;;;;;5049625;28;20697;-69
2021/10/25 14:16:34;;;;;;;48.50;13.60;;;13.30;99.70;;;;;;5049957;28;20499;-69
2021/10/25 14:19:02;;;;;;;48.50;13.00;;;13.10;99.70;;;;;;5050597;28;20483;-68
2021/10/25 14:21:33;;;;;;;47.30;12.10;;;13.00;99.70;;;;;;5052458;28;20468;-68
2021/10/25 14:24:03;;;;;;;46.93;12.13;;;12.90;99.70;;;;;;5047862;28;20452;-67
2021/10/25 14:26:30;;;;;;;48.03;12.20;;;13.10;99.70;;;;;;5043959;28;20479;-67
2021/10/25 14:28:56;;;;;;;45.77;10.97;;;13.10;99.70;;;;;;5062066;28;20446;-68
2021/10/25 14:31:23;;;;;;;46.27;12.10;;;13.00;99.70;;;;;;5054012;28;20451;-67
2021/10/25 14:33:51;;;;;;;53.03;10.90;;;13.10;99.70;;;;;;5030941;28;20484;-68
2021/10/25 14:36:20;;;;;;;45.40;12.47;;;13.10;99.70;;;;;;5034850;28;20475;-67
2021/10/25 14:38:56;;;;;;;47.37;14.20;;;13.10;99.70;;;;;;5047555;28;20502;-67
2021/10/25 14:41:29;;;;;;;48.90;14.10;;;13.10;99.70;;;;;;5030426;28;20444;-68
2021/10/25 14:43:59;;;;;;;52.90;16.43;;;13.00;99.70;;;;;;5030557;28;20467;-67
2021/10/25 14:53:17;;;;;;;48.37;14.90;;;12.90;99.70;;;;;;5039187;28;20435;-67
2021/10/25 14:54:53;;;;;;;50.90;17.80;;;12.70;99.70;;;;;;5048570;28;20439;-67
2021/10/25 14:57:22;;;;;;;50.43;15.53;;;12.60;99.70;;;;;;5048474;28;20818;-68
2021/10/25 14:59:51;;;;;;;53.70;16.00;;;12.60;99.70;;;;;;5047423;28;20459;-68
2021/10/25 15:02:19;;;;;;;51.63;16.77;;;12.50;99.70;;;;;;5049382;28;20826;-68
2021/10/25 15:04:47;;;;;;;57.13;16.80;;;12.50;99.70;;;;;;5049111;28;20472;-68
2021/10/25 15:07:20;;;;;;;54.17;17.43;;;12.50;99.70;;;;;;5048724;28;20558;-67
2021/10/25 15:09:47;;;;;;;55.30;15.17;;;12.40;99.70;;;;;;5050089;28;20447;-68
2021/10/25 15:12:14;;;;;;;53.90;16.50;;;12.30;99.70;;;;;;5049546;28;20443;-67
2021/10/25 15:14:43;;;;;;;51.17;16.60;;;12.20;99.70;;;;;;5049935;28;20907;-68
2021/10/25 15:17:10;;;;;;;51.67;16.13;;;12.10;99.70;;;;;;5048560;28;20482;-68
2021/10/25 15:19:38;;;;;;;59.03;17.63;;;12.00;99.70;;;;;;5049860;28;20459;-68
2021/10/25 15:22:07;;;;;;;53.50;16.90;;;11.90;99.70;;;;;;5044316;28;20471;-68
2021/10/25 15:24:37;;;;;;;55.70;17.60;;;11.80;99.70;;;;;;5037132;28;20528;-67
2021/10/25 15:27:04;;;;;;;53.00;16.17;;;11.80;99.70;;;;;;5048811;28;20475;-68
2021/10/25 15:29:31;;;;;;;54.10;17.00;;;11.80;99.70;;;;;;5049027;28;20536;-67
2021/10/25 15:31:59;;;;;;;54.87;16.43;;;11.70;99.70;;;;;;5049635;28;20452;-67
2021/10/25 15:34:25;;;;;;;53.13;15.87;;;11.70;99.70;;;;;;5049060;28;20571;-69
2021/10/25 15:36:52;;;;;;;51.50;16.20;;;11.70;99.70;;;;;;5044254;28;20507;-69
2021/10/25 15:39:19;;;;;;;55.20;18.60;;;11.70;99.70;;;;;;5033143;28;20476;-70
2021/10/25 15:41:47;;;;;;;54.77;17.10;;;11.70;99.70;;;;;;5039962;28;20452;-70
2021/10/25 15:44:14;;;;;;;52.20;16.60;;;11.70;99.70;;;;;;5049612;28;20450;-70
2021/10/25 15:46:41;;;;;;;54.00;17.23;;;11.60;99.70;;;;;;5050453;28;20483;-67
2021/10/25 15:49:09;;;;;;;55.60;17.07;;;11.60;99.70;;;;;;5052987;28;20796;-67
2021/10/25 15:51:37;;;;;;;54.63;19.30;;;11.50;99.70;;;;;;5051457;28;20462;-67
2021/10/25 15:54:07;;;;;;;58.33;19.23;;;11.50;99.70;;;;;;5049173;28;20482;-67
2021/10/25 15:56:34;;;;;;;55.67;19.13;;;11.40;99.70;;;;;;5051981;28;20451;-67
2021/10/25 15:59:00;;;;;;;57.37;18.80;;;11.40;99.70;;;;;;5051897;28;20446;-68
2021/10/25 16:01:27;;;;;;;60.37;20.03;;;11.30;99.70;;;;;;5051862;28;20782;-67
2021/10/25 16:03:54;;;;;;;59.30;19.10;;;11.30;99.70;;;;;;5047644;28;20930;-67
2021/10/25 16:06:22;;;;;;;61.10;21.00;;;11.40;99.70;;;;;;5049603;28;20470;-68
2021/10/25 16:08:49;;;;;;;59.50;19.23;;;11.40;99.70;;;;;;5051559;28;20444;-67
2021/10/25 16:11:16;;;;;;;62.07;17.90;;;11.30;99.70;;;;;;5048639;28;20467;-68
2021/10/25 16:13:42;;;;;;;58.07;19.10;;;11.30;99.70;;;;;;5043307;28;20483;-67
2021/10/25 16:16:09;;;;;;;57.47;17.00;;;11.20;99.70;;;;;;5046429;28;20483;-68
2021/10/25 16:18:37;;;;;;;59.13;18.47;;;11.10;99.70;;;;;;5048817;28;20518;-69
2021/10/25 16:21:04;;;;;;;61.70;19.13;;;11.00;99.70;;;;;;5055041;28;20486;-67
2021/10/25 16:23:33;;;;;;;67.27;18.70;;;10.90;99.70;;;;;;5052172;28;20531;-68
2021/10/25 16:25:59;;;;;;;71.33;20.43;;;10.90;99.70;;;;;;5051343;28;20482;-65
2021/10/25 16:28:26;;;;;;;67.40;15.50;;;10.90;99.70;;;;;;5053437;28;21942;-67
2021/10/25 16:30:57;;;;;;;62.13;15.50;;;10.80;99.70;;;;;;5072649;28;20468;-68
2021/10/25 16:33:24;;;;;;;60.23;11.67;;;10.80;99.70;;;;;;5063268;28;20478;-68
2021/10/25 16:35:51;;;;;;;59.40;11.87;;;10.70;99.70;;;;;;5058563;28;20893;-68
2021/10/25 16:38:18;;;;;;;57.40;11.23;;;10.70;99.70;;;;;;5052779;28;20463;-67
2021/10/25 16:40:46;;;;;;;54.17;11.47;;;10.50;99.70;;;;;;5049982;28;20453;-67
2021/10/25 16:43:14;;;;;;;56.47;10.40;;;10.50;99.70;;;;;;5050272;28;20544;-67
2021/10/25 16:45:43;;;;;;;58.77;10.40;;;10.40;99.70;;;;;;5054497;28;20490;-68
2021/10/25 16:48:13;;;;;;;55.47;11.50;;;10.30;99.70;;;;;;5045931;28;20498;-67
2021/10/25 16:50:43;;;;;;;53.40;11.70;;;10.40;99.70;;;;;;5047243;28;20467;-68
2021/10/25 16:53:17;;;;;;;63.73;14.00;;;10.40;99.70;;;;;;5049299;28;20459;-68
2021/10/25 16:55:54;;;;;;;61.90;15.30;;;10.40;99.70;;;;;;5045097;28;20524;-66
2021/10/25 17:04:05;;;;;;;60.03;13.77;;;10.30;99.70;;;;;;5049009;28;20814;-67
2021/10/25 17:06:53;;;;;;;59.30;12.73;;;10.30;99.70;;;;;;5048774;28;20858;-67
2021/10/25 17:09:24;;;;;;;60.03;11.90;;;10.30;99.70;;;;;;5050796;28;20479;-67
2021/10/25 17:11:52;;;;;;;61.70;13.37;;;10.30;99.70;;;;;;5052607;28;20868;-66
2021/10/25 17:14:19;;;;;;;62.00;15.33;;;10.20;99.70;;;;;;5050090;28;20480;-68
2021/10/25 17:16:46;;;;;;;64.30;16.70;;;10.10;99.70;;;;;;5049837;28;20471;-68
2021/10/25 17:19:13;;;;;;;63.73;15.00;;;10.10;99.70;;;;;;5049090;28;20444;-67
2021/10/25 17:21:43;;;;;;;62.70;14.90;;;10.20;99.70;;;;;;5031805;28;20444;-67
2021/10/25 17:24:10;;;;;;;67.77;16.53;;;10.20;99.70;;;;;;5039164;28;20464;-67
2021/10/25 17:26:38;;;;;;;67.40;16.40;;;10.20;99.70;;;;;;5051093;28;20463;-67
2021/10/25 17:29:07;;;;;;;64.80;15.60;;;10.10;99.70;;;;;;5050585;28;20443;-67
2021/10/25 17:31:36;;;;;;;65.07;16.30;;;10.10;99.70;;;;;;5051388;28;20521;-68
2021/10/25 17:34:03;;;;;;;65.93;16.43;;;10.10;99.70;;;;;;5046006;28;20552;-68
2021/10/25 17:36:29;;;;;;;67.07;17.40;;;10.00;99.70;;;;;;5049069;28;21009;-67
2021/10/25 17:38:58;;;;;;;68.03;15.50;;;10.10;99.70;;;;;;5051231;28;20446;-66
2021/10/25 17:41:29;;;;;;;64.57;14.77;;;10.00;99.70;;;;;;5051311;28;20443;-67
2021/10/25 17:43:55;;;;;;;63.30;14.97;;;10.00;99.70;;;;;;5051155;28;20497;-66
2021/10/25 17:46:23;;;;;;;66.10;15.37;;;10.00;99.70;;;;;;5050274;28;20529;-67
2021/10/25 17:48:50;;;;;;;69.83;15.63;;;10.00;99.70;;;;;;5051246;28;20458;-68
2021/10/25 17:51:17;;;;;;;68.77;16.13;;;10.00;99.70;;;;;;5049884;28;20973;-68
2021/10/25 17:53:44;;;;;;;68.57;16.87;;;9.90;99.70;;;;;;5047496;28;20468;-68
2021/10/25 17:56:11;;;;;;;71.40;16.73;;;9.90;99.70;;;;;;5049958;28;20470;-68
2021/10/25 17:58:38;;;;;;;67.80;15.90;;;10.00;99.70;;;;;;5050324;28;20444;-67
2021/10/25 18:01:04;;;;;;;71.20;15.87;;;10.00;99.70;;;;;;5050320;28;20753;-67
2021/10/25 18:03:35;;;;;;;70.07;15.10;;;10.00;99.70;;;;;;5045070;28;20440;-68